| Date | Time | Temp. (oF) | Dew Point (oF) | Rel. Hum. (%) | Press. (in.) | Wind Dir. | Wind Speed (mph) | Hourly Rainfall (in.) |
|
|---|---|---|---|---|---|---|---|---|---|
| 1 | 03/24 | 00:00 | 34 | 33 | 100 | 29.80 | NE | 3 | 0.00 |
| 2 | 03/23 | 23:00 | 34 | 33 | 100 | 29.79 | N | 3 | 0.00 |
| 3 | 03/23 | 22:00 | 35 | 35 | 100 | 29.79 | N | 5 | 0.01 |
| 4 | 03/23 | 21:00 | 35 | 35 | 100 | 29.78 | NE | 7 | 0.00 |
| 5 | 03/23 | 20:00 | 35 | 35 | 100 | 29.77 | N | 5 | 0.01 |
| 6 | 03/23 | 19:00 | 35 | 35 | 100 | 29.76 | N | 8 | 0.02 |
| 7 | 03/23 | 18:00 | 35 | 35 | 100 | 29.75 | NNE | 5 | 0.01 |
| 8 | 03/23 | 17:00 | 36 | 36 | 100 | 29.74 | NE | 10 | 0.03 |
| 9 | 03/23 | 16:00 | 36 | 36 | 100 | 29.77 | NE | 9 | 0.17 |
| 10 | 03/23 | 15:00 | 37 | 36 | 100 | 29.73 | NNE | 13 | 0.17 |
| 11 | 03/23 | 14:00 | 38 | 37 | 100 | 29.78 | NE | 10 | 0.11 |
| 12 | 03/23 | 13:00 | 39 | 39 | 100 | 29.80 | NE | 22 | 0.05 |
| 13 | 03/23 | 12:00 | 40 | 40 | 100 | 29.87 | NE | 13 | 0.02 |
| 14 | 03/23 | 11:00 | 40 | 40 | 100 | 29.91 | SE | 15 | 0.03 |
| 15 | 03/23 | 10:00 | 40 | 40 | 100 | 29.95 | ESE | 11 | 0.08 |
| 16 | 03/23 | 09:00 | 39 | 39 | 100 | 29.96 | NE | 15 | 0.00 |
| 17 | miss | miss | miss | miss | miss | miss | miss | miss | |
| 18 | 03/23 | 08:37 | 39 | 39 | 100 | 29.99 | ESE | 5 | 0.15 |
| 19 | miss | miss | miss | miss | miss | miss | miss | miss | |
| 20 | 03/23 | 08:35 | 39 | 39 | 100 | 29.99 | NNE | 5 | 0.14 |
| 21 | miss | miss | miss | miss | miss | miss | miss | miss | |
| 22 | 03/23 | 08:33 | 39 | 39 | 100 | 29.98 | NE | 8 | 0.14 |
| 23 | miss | miss | miss | miss | miss | miss | miss | miss | |
| 24 | 03/23 | 08:31 | 39 | 39 | 100 | 29.98 | NNE | 7 | 0.13 |
| 25 | miss | miss | miss | miss | miss | miss | miss | miss | |
| 26 | 03/23 | 08:30 | 39 | 39 | 100 | 29.98 | ENE | 4 | 0.13 |
| 27 | miss | miss | miss | miss | miss | miss | miss | miss | |
| 28 | 03/23 | 08:30 | 39 | 39 | 100 | 29.98 | ENE | 4 | 0.13 |
| 29 | miss | miss | miss | miss | miss | miss | miss | miss | |
| 30 | 03/23 | 08:30 | 39 | 39 | 100 | 29.98 | ENE | 4 | 0.13 |
| 31 | miss | miss | miss | miss | miss | miss | miss | miss | |
| 32 | 03/23 | 08:30 | 39 | 39 | 100 | 29.98 | ENE | 4 | 0.13 |
| 33 | miss | miss | miss | miss | miss | miss | miss | miss | |
| 34 | 03/23 | 08:30 | 39 | 39 | 100 | 29.98 | ENE | 4 | 0.13 |
| 35 | miss | miss | miss | miss | miss | miss | miss | miss | |
| 36 | 03/23 | 08:30 | 39 | 39 | 100 | 29.98 | ENE | 4 | 0.13 |
| 37 | miss | miss | miss | miss | miss | miss | miss | miss | |
| 38 | 03/23 | 08:30 | 39 | 39 | 100 | 29.98 | ENE | 4 | 0.13 |
| 39 | miss | miss | miss | miss | miss | miss | miss | miss | |
| 40 | 03/23 | 08:30 | 39 | 39 | 100 | 29.98 | ENE | 4 | 0.13 |
| 41 | 03/23 | 08:00 | 39 | 39 | 100 | 29.99 | NE | 11 | 0.12 |
| 42 | 03/23 | 07:00 | 39 | 39 | 100 | 30.01 | NE | 5 | 0.10 |
| 43 | 03/23 | 06:00 | 40 | 40 | 100 | 30.00 | NE | 6 | 0.08 |
| 44 | 03/23 | 05:00 | 40 | 38 | 95 | 30.03 | NE | 5 | 0.06 |
| 45 | 03/23 | 04:00 | 41 | 37 | 88 | 30.02 | ENE | 1 | 0.02 |
| 46 | 03/23 | 03:00 | 42 | 36 | 81 | 30.04 | E | 2 | 0.00 |
| 47 | 03/23 | 02:00 | 42 | 35 | 79 | 30.06 | NE | 3 | 0.00 |
| 48 | 03/23 | 01:00 | 43 | 34 | 73 | 30.08 | ENE | 1 | 0.00 |
| 49 | 03/23 | 00:00 | 44 | 34 | 70 | 30.10 | ESE | 1 | -1.31 |
| 50 | 03/22 | 23:00 | 45 | 35 | 68 | 30.12 | S | 5 | 0.00 |
| 51 | 03/22 | 22:00 | 44 | 33 | 67 | 30.14 | S | 3 | 0.00 |
| 52 | 03/22 | 21:00 | 45 | 33 | 65 | 30.15 | S | 2 | 0.00 |
| 53 | 03/22 | 20:00 | 46 | 34 | 63 | 30.13 | S | 2 | 0.00 |
| 54 | 03/22 | 19:00 | 48 | 34 | 59 | 30.13 | S | 4 | 0.00 |
| 55 | 03/22 | 18:00 | 52 | 31 | 46 | 30.12 | SW | 2 | 0.00 |
| 56 | 03/22 | 17:00 | 55 | 32 | 42 | 30.09 | WNW | 4 | 0.00 |
| 57 | 03/22 | 16:00 | 55 | 34 | 46 | 30.10 | SW | 5 | 0.00 |
| 58 | 03/22 | 15:00 | 54 | 34 | 47 | 30.12 | SW | 8 | 0.00 |
| 59 | 03/22 | 14:00 | 52 | 36 | 55 | 30.17 | SW | 8 | 0.00 |
| 60 | 03/22 | 13:00 | 50 | 33 | 53 | 30.20 | SSE | 4 | 0.00 |
| 61 | 03/22 | 12:00 | 48 | 35 | 62 | 30.23 | WNW | 6 | 0.00 |
| 62 | 03/22 | 11:00 | 46 | 33 | 61 | 30.25 | S | 6 | 0.00 |
| 63 | 03/22 | 10:00 | 44 | 33 | 67 | 30.26 | SW | 5 | 0.00 |
| 64 | 03/22 | 09:00 | 40 | 34 | 80 | 30.26 | WNW | 4 | 0.00 |
| 65 | 03/22 | 08:00 | 35 | 33 | 96 | 30.25 | WNW | 1 | 0.00 |
| 66 | 03/22 | 07:00 | 30 | 28 | 94 | 30.24 | S | 0 | 0.00 |
| 67 | 03/22 | 06:00 | 31 | 27 | 88 | 30.21 | SW | 0 | 0.00 |
| 68 | 03/22 | 05:00 | 34 | 29 | 85 | 30.20 | WNW | 1 | 0.00 |
| 69 | 03/22 | 04:00 | 35 | 30 | 84 | 30.19 | W | 3 | 0.00 |
| 70 | 03/22 | 03:00 | 36 | 30 | 81 | 30.17 | WNW | 4 | 0.00 |
| 71 | 03/22 | 02:00 | 37 | 30 | 78 | 30.18 | WNW | 2 | 0.00 |
| 72 | 03/22 | 01:00 | 38 | 31 | 76 | 30.18 | NW | 4 | 0.00 |
| 73 | 03/22 | 00:00 | 40 | 32 | 74 | 30.18 | WNW | 3 | 0.00 |